sensor_id;sensor_type;location;lat;lon;timestamp;P1;durP1;ratioP1;P2;durP2;ratioP2
12878;SDS011;20617;49.476;10.986;2023-10-19T00:01:44;17.77;;;15.43;;
12878;SDS011;20617;49.476;10.986;2023-10-19T00:03:50;20.23;;;17.10;;
12878;SDS011;20617;49.476;10.986;2023-10-19T00:05:57;22.17;;;17.05;;
12878;SDS011;20617;49.476;10.986;2023-10-19T00:08:02;18.55;;;15.38;;
12878;SDS011;20617;49.476;10.986;2023-10-19T00:10:16;24.70;;;17.35;;
12878;SDS011;20617;49.476;10.986;2023-10-19T00:12:19;20.85;;;16.95;;
12878;SDS011;20617;49.476;10.986;2023-10-19T00:14:25;23.65;;;18.38;;
12878;SDS011;20617;49.476;10.986;2023-10-19T00:16:27;23.58;;;18.80;;
12878;SDS011;20617;49.476;10.986;2023-10-19T00:18:37;21.08;;;17.65;;
12878;SDS011;20617;49.476;10.986;2023-10-19T00:20:47;23.27;;;18.17;;
12878;SDS011;20617;49.476;10.986;2023-10-19T00:22:56;20.40;;;16.85;;
12878;SDS011;20617;49.476;10.986;2023-10-19T00:25:00;24.58;;;19.08;;
12878;SDS011;20617;49.476;10.986;2023-10-19T00:27:05;24.33;;;19.20;;
12878;SDS011;20617;49.476;10.986;2023-10-19T00:29:17;22.38;;;17.77;;
12878;SDS011;20617;49.476;10.986;2023-10-19T00:31:34;23.70;;;17.20;;
12878;SDS011;20617;49.476;10.986;2023-10-19T00:33:43;21.40;;;17.45;;
12878;SDS011;20617;49.476;10.986;2023-10-19T00:35:51;18.92;;;16.90;;
12878;SDS011;20617;49.476;10.986;2023-10-19T00:38:02;18.70;;;16.05;;
12878;SDS011;20617;49.476;10.986;2023-10-19T00:40:23;20.08;;;17.17;;
12878;SDS011;20617;49.476;10.986;2023-10-19T00:44:47;20.08;;;17.95;;
12878;SDS011;20617;49.476;10.986;2023-10-19T00:46:53;21.58;;;18.33;;
12878;SDS011;20617;49.476;10.986;2023-10-19T00:49:05;20.90;;;18.35;;
12878;SDS011;20617;49.476;10.986;2023-10-19T00:51:14;21.42;;;17.58;;
12878;SDS011;20617;49.476;10.986;2023-10-19T00:53:43;20.83;;;17.23;;
12878;SDS011;20617;49.476;10.986;2023-10-19T00:55:46;21.70;;;17.33;;
12878;SDS011;20617;49.476;10.986;2023-10-19T00:57:51;20.52;;;17.48;;
12878;SDS011;20617;49.476;10.986;2023-10-19T00:59:58;20.65;;;16.92;;
12878;SDS011;20617;49.476;10.986;2023-10-19T01:02:13;25.92;;;21.02;;
12878;SDS011;20617;49.476;10.986;2023-10-19T01:04:22;23.20;;;18.55;;
12878;SDS011;20617;49.476;10.986;2023-10-19T01:06:28;20.83;;;18.58;;
12878;SDS011;20617;49.476;10.986;2023-10-19T01:08:36;22.20;;;19.80;;
12878;SDS011;20617;49.476;10.986;2023-10-19T01:10:47;22.50;;;19.38;;
12878;SDS011;20617;49.476;10.986;2023-10-19T01:12:54;22.10;;;19.45;;
12878;SDS011;20617;49.476;10.986;2023-10-19T01:15:05;20.33;;;18.13;;
12878;SDS011;20617;49.476;10.986;2023-10-19T01:17:14;27.25;;;22.38;;
12878;SDS011;20617;49.476;10.986;2023-10-19T01:19:20;24.63;;;18.83;;
12878;SDS011;20617;49.476;10.986;2023-10-19T01:21:25;21.77;;;19.13;;
12878;SDS011;20617;49.476;10.986;2023-10-19T01:23:42;25.00;;;21.63;;
12878;SDS011;20617;49.476;10.986;2023-10-19T01:25:48;23.42;;;20.92;;
12878;SDS011;20617;49.476;10.986;2023-10-19T01:28:06;23.38;;;20.80;;
12878;SDS011;20617;49.476;10.986;2023-10-19T01:30:12;23.63;;;21.13;;
12878;SDS011;20617;49.476;10.986;2023-10-19T01:32:21;23.98;;;20.70;;
12878;SDS011;20617;49.476;10.986;2023-10-19T01:34:26;23.30;;;20.40;;
12878;SDS011;20617;49.476;10.986;2023-10-19T01:36:32;23.88;;;21.27;;
12878;SDS011;20617;49.476;10.986;2023-10-19T01:38:44;22.65;;;20.10;;
12878;SDS011;20617;49.476;10.986;2023-10-19T01:40:49;26.75;;;21.08;;
12878;SDS011;20617;49.476;10.986;2023-10-19T01:42:52;21.45;;;19.10;;
12878;SDS011;20617;49.476;10.986;2023-10-19T01:44:58;25.42;;;20.88;;
12878;SDS011;20617;49.476;10.986;2023-10-19T01:47:01;24.00;;;21.35;;
12878;SDS011;20617;49.476;10.986;2023-10-19T01:49:09;23.80;;;20.63;;
12878;SDS011;20617;49.476;10.986;2023-10-19T01:51:12;23.58;;;20.13;;
12878;SDS011;20617;49.476;10.986;2023-10-19T01:53:17;22.73;;;20.23;;
12878;SDS011;20617;49.476;10.986;2023-10-19T01:55:22;23.67;;;20.38;;
12878;SDS011;20617;49.476;10.986;2023-10-19T01:57:29;24.75;;;21.20;;
12878;SDS011;20617;49.476;10.986;2023-10-19T01:59:31;23.60;;;21.10;;
12878;SDS011;20617;49.476;10.986;2023-10-19T02:03:40;26.38;;;22.17;;
12878;SDS011;20617;49.476;10.986;2023-10-19T02:05:46;24.48;;;21.02;;
12878;SDS011;20617;49.476;10.986;2023-10-19T02:07:51;28.15;;;22.48;;
12878;SDS011;20617;49.476;10.986;2023-10-19T02:09:56;28.63;;;22.45;;
12878;SDS011;20617;49.476;10.986;2023-10-19T02:12:02;25.90;;;22.17;;
12878;SDS011;20617;49.476;10.986;2023-10-19T02:14:08;26.73;;;21.95;;
12878;SDS011;20617;49.476;10.986;2023-10-19T02:16:16;25.27;;;20.98;;
12878;SDS011;20617;49.476;10.986;2023-10-19T02:18:24;25.08;;;22.27;;
12878;SDS011;20617;49.476;10.986;2023-10-19T02:20:26;23.80;;;21.27;;
12878;SDS011;20617;49.476;10.986;2023-10-19T02:22:41;23.63;;;19.87;;
12878;SDS011;20617;49.476;10.986;2023-10-19T02:24:44;24.27;;;21.63;;
12878;SDS011;20617;49.476;10.986;2023-10-19T02:26:49;24.63;;;21.90;;
12878;SDS011;20617;49.476;10.986;2023-10-19T02:28:56;27.02;;;22.77;;
12878;SDS011;20617;49.476;10.986;2023-10-19T02:31:01;22.83;;;20.35;;
12878;SDS011;20617;49.476;10.986;2023-10-19T02:33:12;25.30;;;21.80;;
12878;SDS011;20617;49.476;10.986;2023-10-19T02:35:17;26.48;;;21.55;;
12878;SDS011;20617;49.476;10.986;2023-10-19T02:37:20;26.08;;;22.05;;
12878;SDS011;20617;49.476;10.986;2023-10-19T02:39:27;26.73;;;21.83;;
12878;SDS011;20617;49.476;10.986;2023-10-19T02:41:30;26.25;;;23.48;;
12878;SDS011;20617;49.476;10.986;2023-10-19T02:43:37;24.02;;;21.15;;
12878;SDS011;20617;49.476;10.986;2023-10-19T02:45:42;24.90;;;21.30;;
12878;SDS011;20617;49.476;10.986;2023-10-19T02:47:49;25.70;;;21.92;;
12878;SDS011;20617;49.476;10.986;2023-10-19T02:49:52;23.10;;;20.63;;
12878;SDS011;20617;49.476;10.986;2023-10-19T02:51:59;24.40;;;20.48;;
12878;SDS011;20617;49.476;10.986;2023-10-19T02:54:08;21.42;;;19.02;;
12878;SDS011;20617;49.476;10.986;2023-10-19T02:56:20;24.20;;;19.95;;
12878;SDS011;20617;49.476;10.986;2023-10-19T02:58:25;25.55;;;22.60;;
12878;SDS011;20617;49.476;10.986;2023-10-19T03:00:30;23.40;;;20.25;;
12878;SDS011;20617;49.476;10.986;2023-10-19T03:02:39;23.25;;;19.95;;
12878;SDS011;20617;49.476;10.986;2023-10-19T03:04:44;21.98;;;19.10;;
12878;SDS011;20617;49.476;10.986;2023-10-19T03:06:48;24.00;;;20.63;;
12878;SDS011;20617;49.476;10.986;2023-10-19T03:08:54;25.00;;;21.40;;
12878;SDS011;20617;49.476;10.986;2023-10-19T03:10:59;23.13;;;20.65;;
12878;SDS011;20617;49.476;10.986;2023-10-19T03:13:08;22.45;;;20.05;;
12878;SDS011;20617;49.476;10.986;2023-10-19T03:15:11;24.38;;;21.88;;
12878;SDS011;20617;49.476;10.986;2023-10-19T03:17:16;24.73;;;21.63;;
12878;SDS011;20617;49.476;10.986;2023-10-19T03:19:23;25.23;;;21.63;;
12878;SDS011;20617;49.476;10.986;2023-10-19T03:21:29;25.42;;;20.75;;
12878;SDS011;20617;49.476;10.986;2023-10-19T03:23:35;24.90;;;20.38;;
12878;SDS011;20617;49.476;10.986;2023-10-19T03:25:42;26.35;;;21.17;;
12878;SDS011;20617;49.476;10.986;2023-10-19T03:27:57;26.73;;;23.63;;
12878;SDS011;20617;49.476;10.986;2023-10-19T03:30:08;24.33;;;20.50;;
12878;SDS011;20617;49.476;10.986;2023-10-19T03:32:16;25.42;;;22.23;;
12878;SDS011;20617;49.476;10.986;2023-10-19T03:34:26;24.77;;;22.05;;
12878;SDS011;20617;49.476;10.986;2023-10-19T03:36:37;24.05;;;21.50;;
12878;SDS011;20617;49.476;10.986;2023-10-19T03:38:42;23.70;;;21.25;;
12878;SDS011;20617;49.476;10.986;2023-10-19T03:40:48;28.10;;;21.55;;
12878;SDS011;20617;49.476;10.986;2023-10-19T03:42:54;24.17;;;21.58;;
12878;SDS011;20617;49.476;10.986;2023-10-19T03:45:00;22.95;;;20.45;;
12878;SDS011;20617;49.476;10.986;2023-10-19T03:47:14;23.70;;;21.20;;
12878;SDS011;20617;49.476;10.986;2023-10-19T03:49:22;25.92;;;21.92;;
12878;SDS011;20617;49.476;10.986;2023-10-19T03:51:35;24.42;;;21.17;;
12878;SDS011;20617;49.476;10.986;2023-10-19T03:53:44;25.65;;;21.65;;
12878;SDS011;20617;49.476;10.986;2023-10-19T03:55:56;24.15;;;21.73;;
12878;SDS011;20617;49.476;10.986;2023-10-19T03:58:02;28.65;;;23.33;;
12878;SDS011;20617;49.476;10.986;2023-10-19T04:00:09;25.00;;;22.17;;
12878;SDS011;20617;49.476;10.986;2023-10-19T04:02:19;26.52;;;22.27;;
12878;SDS011;20617;49.476;10.986;2023-10-19T04:04:23;26.98;;;23.00;;
12878;SDS011;20617;49.476;10.986;2023-10-19T04:06:31;25.15;;;22.45;;
12878;SDS011;20617;49.476;10.986;2023-10-19T04:08:39;28.80;;;23.75;;
12878;SDS011;20617;49.476;10.986;2023-10-19T04:10:44;24.13;;;20.73;;
12878;SDS011;20617;49.476;10.986;2023-10-19T04:13:12;26.23;;;23.45;;
12878;SDS011;20617;49.476;10.986;2023-10-19T04:15:17;28.23;;;25.23;;
12878;SDS011;20617;49.476;10.986;2023-10-19T04:17:20;25.15;;;22.33;;
12878;SDS011;20617;49.476;10.986;2023-10-19T04:19:26;30.50;;;24.10;;
12878;SDS011;20617;49.476;10.986;2023-10-19T04:21:31;27.27;;;23.73;;
12878;SDS011;20617;49.476;10.986;2023-10-19T04:23:43;23.02;;;20.63;;
12878;SDS011;20617;49.476;10.986;2023-10-19T04:25:48;27.00;;;22.75;;
12878;SDS011;20617;49.476;10.986;2023-10-19T04:27:51;30.67;;;23.10;;
12878;SDS011;20617;49.476;10.986;2023-10-19T04:29:59;26.15;;;23.40;;
12878;SDS011;20617;49.476;10.986;2023-10-19T04:34:09;25.85;;;23.02;;
12878;SDS011;20617;49.476;10.986;2023-10-19T04:36:15;30.33;;;26.25;;
12878;SDS011;20617;49.476;10.986;2023-10-19T04:38:23;26.92;;;23.20;;
12878;SDS011;20617;49.476;10.986;2023-10-19T04:40:28;30.17;;;24.55;;
12878;SDS011;20617;49.476;10.986;2023-10-19T04:42:34;30.52;;;25.00;;
12878;SDS011;20617;49.476;10.986;2023-10-19T04:44:39;31.35;;;26.17;;
12878;SDS011;20617;49.476;10.986;2023-10-19T04:46:44;28.52;;;25.52;;
12878;SDS011;20617;49.476;10.986;2023-10-19T04:48:49;30.40;;;24.27;;
12878;SDS011;20617;49.476;10.986;2023-10-19T04:50:54;30.95;;;26.00;;
12878;SDS011;20617;49.476;10.986;2023-10-19T04:52:59;28.90;;;25.80;;
12878;SDS011;20617;49.476;10.986;2023-10-19T04:55:06;30.48;;;26.10;;
12878;SDS011;20617;49.476;10.986;2023-10-19T04:57:14;31.20;;;26.30;;
12878;SDS011;20617;49.476;10.986;2023-10-19T04:59:20;33.10;;;27.92;;
12878;SDS011;20617;49.476;10.986;2023-10-19T05:01:25;28.02;;;25.00;;
12878;SDS011;20617;49.476;10.986;2023-10-19T05:05:33;31.95;;;28.23;;
12878;SDS011;20617;49.476;10.986;2023-10-19T05:07:40;31.13;;;26.65;;
12878;SDS011;20617;49.476;10.986;2023-10-19T05:09:46;32.28;;;27.65;;
12878;SDS011;20617;49.476;10.986;2023-10-19T05:11:51;32.30;;;27.23;;
12878;SDS011;20617;49.476;10.986;2023-10-19T05:13:59;28.90;;;25.42;;
12878;SDS011;20617;49.476;10.986;2023-10-19T05:16:07;28.38;;;25.40;;
12878;SDS011;20617;49.476;10.986;2023-10-19T05:18:09;31.35;;;25.90;;
12878;SDS011;20617;49.476;10.986;2023-10-19T05:20:15;30.20;;;26.88;;
12878;SDS011;20617;49.476;10.986;2023-10-19T05:22:20;28.60;;;24.63;;
12878;SDS011;20617;49.476;10.986;2023-10-19T05:24:27;30.10;;;26.85;;
12878;SDS011;20617;49.476;10.986;2023-10-19T05:26:33;28.35;;;25.20;;
12878;SDS011;20617;49.476;10.986;2023-10-19T05:30:47;28.55;;;24.75;;
12878;SDS011;20617;49.476;10.986;2023-10-19T05:32:53;28.10;;;25.08;;
12878;SDS011;20617;49.476;10.986;2023-10-19T05:34:59;26.27;;;23.50;;
12878;SDS011;20617;49.476;10.986;2023-10-19T05:37:06;27.92;;;24.63;;
12878;SDS011;20617;49.476;10.986;2023-10-19T05:39:12;27.25;;;24.20;;
12878;SDS011;20617;49.476;10.986;2023-10-19T05:41:17;28.48;;;25.13;;
12878;SDS011;20617;49.476;10.986;2023-10-19T05:43:23;30.80;;;25.00;;
12878;SDS011;20617;49.476;10.986;2023-10-19T05:45:28;32.25;;;25.42;;
12878;SDS011;20617;49.476;10.986;2023-10-19T05:47:36;27.67;;;24.58;;
12878;SDS011;20617;49.476;10.986;2023-10-19T05:49:41;26.40;;;23.58;;
12878;SDS011;20617;49.476;10.986;2023-10-19T05:51:46;29.38;;;25.48;;
12878;SDS011;20617;49.476;10.986;2023-10-19T05:53:51;26.67;;;23.67;;
12878;SDS011;20617;49.476;10.986;2023-10-19T05:56:03;29.60;;;25.08;;
12878;SDS011;20617;49.476;10.986;2023-10-19T05:58:09;27.55;;;24.60;;
12878;SDS011;20617;49.476;10.986;2023-10-19T06:00:14;29.55;;;24.05;;
12878;SDS011;20617;49.476;10.986;2023-10-19T06:02:22;27.55;;;24.65;;
12878;SDS011;20617;49.476;10.986;2023-10-19T06:04:36;25.75;;;22.92;;
12878;SDS011;20617;49.476;10.986;2023-10-19T06:06:41;29.58;;;25.98;;
12878;SDS011;20617;49.476;10.986;2023-10-19T06:08:46;34.20;;;22.80;;
12878;SDS011;20617;49.476;10.986;2023-10-19T06:10:55;27.75;;;24.65;;
12878;SDS011;20617;49.476;10.986;2023-10-19T06:15:06;29.85;;;24.10;;
12878;SDS011;20617;49.476;10.986;2023-10-19T06:17:12;29.50;;;25.25;;
12878;SDS011;20617;49.476;10.986;2023-10-19T06:19:21;27.15;;;24.25;;
12878;SDS011;20617;49.476;10.986;2023-10-19T06:21:30;28.17;;;24.63;;
12878;SDS011;20617;49.476;10.986;2023-10-19T06:23:35;28.77;;;23.58;;
12878;SDS011;20617;49.476;10.986;2023-10-19T06:25:40;32.72;;;25.85;;
12878;SDS011;20617;49.476;10.986;2023-10-19T06:27:46;29.05;;;24.10;;
12878;SDS011;20617;49.476;10.986;2023-10-19T06:29:51;25.80;;;22.83;;
12878;SDS011;20617;49.476;10.986;2023-10-19T06:31:56;30.08;;;23.50;;
12878;SDS011;20617;49.476;10.986;2023-10-19T06:34:04;25.33;;;22.52;;
12878;SDS011;20617;49.476;10.986;2023-10-19T06:36:09;26.67;;;22.38;;
12878;SDS011;20617;49.476;10.986;2023-10-19T06:38:17;26.38;;;22.65;;
12878;SDS011;20617;49.476;10.986;2023-10-19T06:40:22;24.40;;;21.85;;
12878;SDS011;20617;49.476;10.986;2023-10-19T06:42:28;27.60;;;24.63;;
12878;SDS011;20617;49.476;10.986;2023-10-19T06:44:31;30.23;;;24.60;;
12878;SDS011;20617;49.476;10.986;2023-10-19T06:46:35;27.58;;;24.63;;
12878;SDS011;20617;49.476;10.986;2023-10-19T06:48:38;29.77;;;22.52;;
12878;SDS011;20617;49.476;10.986;2023-10-19T06:50:44;28.30;;;24.30;;
12878;SDS011;20617;49.476;10.986;2023-10-19T06:52:53;26.40;;;23.58;;
12878;SDS011;20617;49.476;10.986;2023-10-19T06:55:05;27.88;;;24.60;;
12878;SDS011;20617;49.476;10.986;2023-10-19T06:57:15;29.15;;;24.08;;
12878;SDS011;20617;49.476;10.986;2023-10-19T06:59:20;28.52;;;24.15;;
12878;SDS011;20617;49.476;10.986;2023-10-19T07:01:23;30.33;;;24.55;;
12878;SDS011;20617;49.476;10.986;2023-10-19T07:03:31;31.02;;;23.45;;
12878;SDS011;20617;49.476;10.986;2023-10-19T07:07:42;24.63;;;21.58;;
12878;SDS011;20617;49.476;10.986;2023-10-19T07:09:47;26.13;;;23.30;;
12878;SDS011;20617;49.476;10.986;2023-10-19T07:11:56;28.55;;;23.50;;
12878;SDS011;20617;49.476;10.986;2023-10-19T07:14:02;23.40;;;20.35;;
12878;SDS011;20617;49.476;10.986;2023-10-19T07:16:11;24.25;;;21.63;;
12878;SDS011;20617;49.476;10.986;2023-10-19T07:18:16;22.23;;;19.63;;
12878;SDS011;20617;49.476;10.986;2023-10-19T07:22:28;23.95;;;21.35;;
12878;SDS011;20617;49.476;10.986;2023-10-19T07:26:40;24.48;;;22.05;;
12878;SDS011;20617;49.476;10.986;2023-10-19T07:28:58;24.95;;;22.45;;
12878;SDS011;20617;49.476;10.986;2023-10-19T07:31:03;26.90;;;21.63;;
12878;SDS011;20617;49.476;10.986;2023-10-19T07:33:12;22.00;;;19.70;;
12878;SDS011;20617;49.476;10.986;2023-10-19T07:35:21;25.98;;;22.30;;
12878;SDS011;20617;49.476;10.986;2023-10-19T07:37:27;24.27;;;20.98;;
12878;SDS011;20617;49.476;10.986;2023-10-19T07:39:30;23.58;;;20.50;;
12878;SDS011;20617;49.476;10.986;2023-10-19T07:41:37;25.33;;;22.08;;
12878;SDS011;20617;49.476;10.986;2023-10-19T07:43:42;22.73;;;20.27;;
12878;SDS011;20617;49.476;10.986;2023-10-19T07:45:51;22.42;;;20.08;;
12878;SDS011;20617;49.476;10.986;2023-10-19T07:47:56;25.33;;;22.20;;
12878;SDS011;20617;49.476;10.986;2023-10-19T07:50:08;24.98;;;21.52;;
12878;SDS011;20617;49.476;10.986;2023-10-19T07:52:17;27.13;;;22.15;;
12878;SDS011;20617;49.476;10.986;2023-10-19T07:54:24;24.27;;;21.73;;
12878;SDS011;20617;49.476;10.986;2023-10-19T07:56:29;26.60;;;21.40;;
12878;SDS011;20617;49.476;10.986;2023-10-19T07:58:35;24.80;;;22.20;;
12878;SDS011;20617;49.476;10.986;2023-10-19T08:00:43;28.63;;;23.23;;
12878;SDS011;20617;49.476;10.986;2023-10-19T08:04:56;23.17;;;20.75;;
12878;SDS011;20617;49.476;10.986;2023-10-19T08:07:03;21.55;;;19.27;;
12878;SDS011;20617;49.476;10.986;2023-10-19T08:09:08;23.55;;;20.88;;
12878;SDS011;20617;49.476;10.986;2023-10-19T08:11:13;24.00;;;19.05;;
12878;SDS011;20617;49.476;10.986;2023-10-19T08:15:27;25.58;;;21.20;;
12878;SDS011;20617;49.476;10.986;2023-10-19T08:17:33;23.00;;;20.67;;
12878;SDS011;20617;49.476;10.986;2023-10-19T08:19:42;23.50;;;21.05;;
12878;SDS011;20617;49.476;10.986;2023-10-19T08:21:47;23.00;;;19.35;;
12878;SDS011;20617;49.476;10.986;2023-10-19T08:23:52;24.88;;;20.48;;
12878;SDS011;20617;49.476;10.986;2023-10-19T08:25:57;23.85;;;19.33;;
12878;SDS011;20617;49.476;10.986;2023-10-19T08:28:00;22.65;;;20.17;;
12878;SDS011;20617;49.476;10.986;2023-10-19T08:30:06;25.48;;;22.35;;
12878;SDS011;20617;49.476;10.986;2023-10-19T08:32:14;25.58;;;21.25;;
12878;SDS011;20617;49.476;10.986;2023-10-19T08:34:19;23.55;;;21.08;;
12878;SDS011;20617;49.476;10.986;2023-10-19T08:36:29;23.83;;;21.02;;
12878;SDS011;20617;49.476;10.986;2023-10-19T08:38:34;23.25;;;20.75;;
12878;SDS011;20617;49.476;10.986;2023-10-19T08:40:39;25.20;;;22.50;;
12878;SDS011;20617;49.476;10.986;2023-10-19T08:42:44;24.02;;;21.45;;
12878;SDS011;20617;49.476;10.986;2023-10-19T08:44:50;22.38;;;19.98;;
12878;SDS011;20617;49.476;10.986;2023-10-19T08:46:53;23.77;;;21.27;;
12878;SDS011;20617;49.476;10.986;2023-10-19T08:48:59;23.33;;;20.83;;
12878;SDS011;20617;49.476;10.986;2023-10-19T08:51:10;23.15;;;20.23;;
12878;SDS011;20617;49.476;10.986;2023-10-19T08:53:17;23.85;;;20.88;;
12878;SDS011;20617;49.476;10.986;2023-10-19T08:55:25;23.67;;;21.17;;
12878;SDS011;20617;49.476;10.986;2023-10-19T08:57:49;25.40;;;21.55;;
12878;SDS011;20617;49.476;10.986;2023-10-19T08:59:55;25.20;;;22.63;;
12878;SDS011;20617;49.476;10.986;2023-10-19T09:02:01;23.83;;;20.98;;
12878;SDS011;20617;49.476;10.986;2023-10-19T09:04:09;23.17;;;19.75;;
12878;SDS011;20617;49.476;10.986;2023-10-19T09:06:15;24.63;;;19.40;;
12878;SDS011;20617;49.476;10.986;2023-10-19T09:08:23;23.90;;;20.35;;
12878;SDS011;20617;49.476;10.986;2023-10-19T09:10:39;26.13;;;20.88;;
12878;SDS011;20617;49.476;10.986;2023-10-19T09:12:55;21.52;;;19.02;;
12878;SDS011;20617;49.476;10.986;2023-10-19T09:15:04;22.52;;;18.70;;
12878;SDS011;20617;49.476;10.986;2023-10-19T09:17:28;20.23;;;17.80;;
12878;SDS011;20617;49.476;10.986;2023-10-19T09:19:40;23.27;;;20.30;;
12878;SDS011;20617;49.476;10.986;2023-10-19T09:21:46;22.90;;;18.98;;
12878;SDS011;20617;49.476;10.986;2023-10-19T09:23:55;20.35;;;18.15;;
12878;SDS011;20617;49.476;10.986;2023-10-19T09:26:01;21.05;;;18.45;;
12878;SDS011;20617;49.476;10.986;2023-10-19T09:28:09;20.42;;;18.23;;
12878;SDS011;20617;49.476;10.986;2023-10-19T09:30:15;28.30;;;20.13;;
12878;SDS011;20617;49.476;10.986;2023-10-19T09:32:22;21.15;;;18.90;;
12878;SDS011;20617;49.476;10.986;2023-10-19T09:34:28;22.40;;;18.85;;
12878;SDS011;20617;49.476;10.986;2023-10-19T09:36:36;21.65;;;19.30;;
12878;SDS011;20617;49.476;10.986;2023-10-19T09:38:45;20.23;;;17.98;;
12878;SDS011;20617;49.476;10.986;2023-10-19T09:40:56;21.48;;;18.33;;
12878;SDS011;20617;49.476;10.986;2023-10-19T09:43:03;19.85;;;17.38;;
12878;SDS011;20617;49.476;10.986;2023-10-19T09:45:10;19.27;;;16.58;;
12878;SDS011;20617;49.476;10.986;2023-10-19T09:47:14;19.17;;;16.35;;
12878;SDS011;20617;49.476;10.986;2023-10-19T09:49:35;20.73;;;18.40;;
12878;SDS011;20617;49.476;10.986;2023-10-19T09:51:37;19.70;;;17.70;;
12878;SDS011;20617;49.476;10.986;2023-10-19T09:53:56;18.67;;;16.88;;
12878;SDS011;20617;49.476;10.986;2023-10-19T09:56:10;18.70;;;15.98;;
12878;SDS011;20617;49.476;10.986;2023-10-19T09:58:21;21.10;;;18.80;;
12878;SDS011;20617;49.476;10.986;2023-10-19T10:00:31;21.15;;;17.85;;
12878;SDS011;20617;49.476;10.986;2023-10-19T10:02:36;18.40;;;16.40;;
12878;SDS011;20617;49.476;10.986;2023-10-19T10:04:40;20.88;;;17.95;;
12878;SDS011;20617;49.476;10.986;2023-10-19T10:06:57;20.08;;;17.70;;
12878;SDS011;20617;49.476;10.986;2023-10-19T10:09:24;20.67;;;17.40;;
12878;SDS011;20617;49.476;10.986;2023-10-19T10:11:58;24.38;;;20.27;;
12878;SDS011;20617;49.476;10.986;2023-10-19T10:14:20;21.23;;;18.85;;
12878;SDS011;20617;49.476;10.986;2023-10-19T10:16:33;17.75;;;15.82;;
12878;SDS011;20617;49.476;10.986;2023-10-19T10:20:42;20.27;;;18.15;;
12878;SDS011;20617;49.476;10.986;2023-10-19T10:23:14;19.35;;;16.30;;
12878;SDS011;20617;49.476;10.986;2023-10-19T10:25:34;20.15;;;18.02;;
12878;SDS011;20617;49.476;10.986;2023-10-19T10:29:53;19.60;;;17.08;;
12878;SDS011;20617;49.476;10.986;2023-10-19T10:32:00;20.63;;;18.42;;
12878;SDS011;20617;49.476;10.986;2023-10-19T10:34:08;21.00;;;18.83;;
12878;SDS011;20617;49.476;10.986;2023-10-19T10:36:11;20.58;;;17.92;;
12878;SDS011;20617;49.476;10.986;2023-10-19T10:38:16;28.55;;;18.80;;
12878;SDS011;20617;49.476;10.986;2023-10-19T10:40:19;20.55;;;17.42;;
12878;SDS011;20617;49.476;10.986;2023-10-19T10:42:24;21.92;;;17.35;;
12878;SDS011;20617;49.476;10.986;2023-10-19T10:44:40;23.67;;;18.15;;
12878;SDS011;20617;49.476;10.986;2023-10-19T10:46:43;21.70;;;17.67;;
12878;SDS011;20617;49.476;10.986;2023-10-19T10:48:49;21.40;;;18.42;;
12878;SDS011;20617;49.476;10.986;2023-10-19T10:53:00;21.92;;;18.90;;
12878;SDS011;20617;49.476;10.986;2023-10-19T10:57:14;19.15;;;16.63;;
12878;SDS011;20617;49.476;10.986;2023-10-19T10:59:17;18.77;;;16.88;;
12878;SDS011;20617;49.476;10.986;2023-10-19T11:01:31;19.92;;;15.18;;
12878;SDS011;20617;49.476;10.986;2023-10-19T11:03:37;17.98;;;15.68;;
12878;SDS011;20617;49.476;10.986;2023-10-19T11:05:39;19.50;;;16.15;;
12878;SDS011;20617;49.476;10.986;2023-10-19T11:08:03;19.02;;;17.02;;
12878;SDS011;20617;49.476;10.986;2023-10-19T11:10:11;20.63;;;17.58;;
12878;SDS011;20617;49.476;10.986;2023-10-19T11:12:16;19.30;;;17.15;;
12878;SDS011;20617;49.476;10.986;2023-10-19T11:14:21;19.17;;;14.80;;
12878;SDS011;20617;49.476;10.986;2023-10-19T11:16:27;21.52;;;17.30;;
12878;SDS011;20617;49.476;10.986;2023-10-19T11:20:41;17.13;;;15.07;;
12878;SDS011;20617;49.476;10.986;2023-10-19T11:22:47;17.83;;;13.85;;
12878;SDS011;20617;49.476;10.986;2023-10-19T11:24:53;17.98;;;14.55;;
12878;SDS011;20617;49.476;10.986;2023-10-19T11:26:58;18.73;;;15.50;;
12878;SDS011;20617;49.476;10.986;2023-10-19T11:29:04;16.23;;;14.45;;
12878;SDS011;20617;49.476;10.986;2023-10-19T11:31:12;16.13;;;14.50;;
12878;SDS011;20617;49.476;10.986;2023-10-19T11:33:18;14.18;;;12.68;;
12878;SDS011;20617;49.476;10.986;2023-10-19T11:35:28;16.48;;;14.68;;
12878;SDS011;20617;49.476;10.986;2023-10-19T11:37:45;16.58;;;14.48;;
12878;SDS011;20617;49.476;10.986;2023-10-19T11:39:50;17.10;;;14.70;;
12878;SDS011;20617;49.476;10.986;2023-10-19T11:41:55;15.18;;;13.57;;
12878;SDS011;20617;49.476;10.986;2023-10-19T11:44:00;16.05;;;13.88;;
12878;SDS011;20617;49.476;10.986;2023-10-19T11:48:11;13.68;;;11.80;;
12878;SDS011;20617;49.476;10.986;2023-10-19T11:50:13;16.73;;;14.23;;
12878;SDS011;20617;49.476;10.986;2023-10-19T11:52:22;16.10;;;13.88;;
12878;SDS011;20617;49.476;10.986;2023-10-19T11:54:29;15.57;;;13.80;;
12878;SDS011;20617;49.476;10.986;2023-10-19T11:56:35;14.93;;;12.48;;
12878;SDS011;20617;49.476;10.986;2023-10-19T11:58:40;18.35;;;13.82;;
12878;SDS011;20617;49.476;10.986;2023-10-19T12:00:49;16.10;;;13.52;;
12878;SDS011;20617;49.476;10.986;2023-10-19T12:02:56;15.40;;;13.40;;
12878;SDS011;20617;49.476;10.986;2023-10-19T12:05:01;15.63;;;13.43;;
12878;SDS011;20617;49.476;10.986;2023-10-19T12:09:14;13.25;;;11.07;;
12878;SDS011;20617;49.476;10.986;2023-10-19T12:11:19;15.02;;;13.35;;
12878;SDS011;20617;49.476;10.986;2023-10-19T12:13:25;13.60;;;11.90;;
12878;SDS011;20617;49.476;10.986;2023-10-19T12:15:31;16.38;;;12.80;;
12878;SDS011;20617;49.476;10.986;2023-10-19T12:17:36;13.90;;;11.30;;
12878;SDS011;20617;49.476;10.986;2023-10-19T12:19:41;15.77;;;10.98;;
12878;SDS011;20617;49.476;10.986;2023-10-19T12:21:47;16.83;;;12.80;;
12878;SDS011;20617;49.476;10.986;2023-10-19T12:23:52;19.05;;;13.65;;
12878;SDS011;20617;49.476;10.986;2023-10-19T12:26:00;14.55;;;11.68;;
12878;SDS011;20617;49.476;10.986;2023-10-19T12:28:13;11.82;;;10.52;;
12878;SDS011;20617;49.476;10.986;2023-10-19T12:30:18;17.17;;;13.13;;
12878;SDS011;20617;49.476;10.986;2023-10-19T12:32:26;20.48;;;12.32;;
12878;SDS011;20617;49.476;10.986;2023-10-19T12:34:31;13.82;;;12.10;;
12878;SDS011;20617;49.476;10.986;2023-10-19T12:38:39;15.18;;;11.55;;
12878;SDS011;20617;49.476;10.986;2023-10-19T12:40:44;12.00;;;10.75;;
12878;SDS011;20617;49.476;10.986;2023-10-19T12:42:53;14.93;;;12.23;;
12878;SDS011;20617;49.476;10.986;2023-10-19T12:44:59;14.75;;;12.77;;
12878;SDS011;20617;49.476;10.986;2023-10-19T12:49:11;13.48;;;10.73;;
12878;SDS011;20617;49.476;10.986;2023-10-19T12:51:20;13.45;;;11.48;;
12878;SDS011;20617;49.476;10.986;2023-10-19T12:53:27;11.18;;;10.07;;
12878;SDS011;20617;49.476;10.986;2023-10-19T12:55:34;12.57;;;11.27;;
12878;SDS011;20617;49.476;10.986;2023-10-19T12:57:40;13.02;;;10.52;;